Time;durP1;ratioP1;P1;durP2;ratioP2;P2;SDS_P1;SDS_P2;PMS_P1;PMS_P2;Temp;Humidity;BMP_temperature;BMP_pressure;BME280_temperature;BME280_humidity;BME280_pressure;Samples;Min_cycle;Max_cycle;Signal;HPM_P1;HPM_P2
2023/10/24 00:02:12;;;;;;;7.73;1.60;;;;;;;;;;5067129;28;20498;-55
2023/10/24 00:04:41;;;;;;;5.60;1.50;;;;;;;;;;5066470;28;20502;-56
2023/10/24 00:07:08;;;;;;;5.90;2.77;;;;;;;;;;5067164;28;20516;-59
2023/10/24 00:09:35;;;;;;;10.77;1.97;;;;;;;;;;5069946;28;20468;-55
2023/10/24 00:12:03;;;;;;;5.57;1.80;;;;;;;;;;5070260;28;20445;-55
2023/10/24 00:14:31;;;;;;;9.57;2.50;;;;;;;;;;5068137;28;20464;-58
2023/10/24 00:16:58;;;;;;;5.10;1.40;;;;;;;;;;5070523;28;20484;-55
2023/10/24 00:19:25;;;;;;;5.47;1.50;;;;;;;;;;5066976;28;20880;-57
2023/10/24 00:21:54;;;;;;;4.43;2.03;;;;;;;;;;5070026;28;20847;-55
2023/10/24 00:24:22;;;;;;;9.10;1.63;;;;;;;;;;5066758;28;20487;-56
2023/10/24 00:26:49;;;;;;;4.00;1.93;;;;;;;;;;5066271;28;20987;-58
2023/10/24 00:29:16;;;;;;;3.80;2.83;;;;;;;;;;5069930;28;20476;-58
2023/10/24 00:31:43;;;;;;;10.90;3.77;;;;;;;;;;5070071;28;20452;-57
2023/10/24 00:34:12;;;;;;;11.10;2.80;;;;;;;;;;5068457;28;20440;-56
2023/10/24 00:36:40;;;;;;;9.50;4.03;;;;;;;;;;5069895;28;20468;-55
2023/10/24 00:39:09;;;;;;;10.03;1.93;;;;;;;;;;5070097;28;20449;-57
2023/10/24 00:41:36;;;;;;;7.80;1.83;;;;;;;;;;5068138;28;20550;-59
2023/10/24 00:44:03;;;;;;;10.90;3.23;;;;;;;;;;5069490;28;20484;-59
2023/10/24 00:46:31;;;;;;;11.00;2.63;;;;;;;;;;5067822;28;20519;-56
2023/10/24 00:48:59;;;;;;;7.30;2.77;;;;;;;;;;5069527;28;20449;-56
2023/10/24 00:51:26;;;;;;;7.10;2.77;;;;;;;;;;5070003;28;20472;-58
2023/10/24 00:53:54;;;;;;;7.47;3.00;;;;;;;;;;5068597;28;20853;-55
2023/10/24 00:56:23;;;;;;;11.23;2.60;;;;;;;;;;5068256;28;20486;-54
2023/10/24 00:58:51;;;;;;;9.03;2.90;;;;;;;;;;5069237;28;20920;-57
2023/10/24 01:01:19;;;;;;;14.30;2.60;;;;;;;;;;5062562;28;21000;-56
2023/10/24 01:03:47;;;;;;;12.57;3.20;;;;;;;;;;5067202;28;20483;-56
2023/10/24 01:06:15;;;;;;;7.53;2.43;;;;;;;;;;5069271;28;20994;-58
2023/10/24 01:08:42;;;;;;;8.13;3.40;;;;;;;;;;5069249;28;20548;-56
2023/10/24 01:11:11;;;;;;;6.20;1.70;;;;;;;;;;5069677;28;20502;-56
2023/10/24 01:13:39;;;;;;;9.00;2.30;;;;;;;;;;5069258;28;20484;-56
2023/10/24 01:16:07;;;;;;;6.70;2.20;;;;;;;;;;5069463;28;20460;-57
2023/10/24 01:18:34;;;;;;;9.00;3.23;;;;;;;;;;5068358;28;20444;-55
2023/10/24 01:21:02;;;;;;;5.90;2.77;;;;;;;;;;5069446;28;20505;-57
2023/10/24 01:23:31;;;;;;;5.73;3.53;;;;;;;;;;5067928;28;20708;-54
2023/10/24 01:25:59;;;;;;;7.17;2.67;;;;;;;;;;5069687;28;20508;-55
2023/10/24 01:28:27;;;;;;;9.50;3.00;;;;;;;;;;5072625;28;20542;-56
2023/10/24 01:30:54;;;;;;;4.83;2.10;;;;;;;;;;5073485;28;20458;-55
2023/10/24 01:33:22;;;;;;;5.00;2.07;;;;;;;;;;5073693;28;20444;-54
2023/10/24 01:35:50;;;;;;;8.43;2.10;;;;;;;;;;5073737;28;20468;-54
2023/10/24 01:38:17;;;;;;;4.47;1.70;;;;;;;;;;5072833;28;20471;-57
2023/10/24 01:40:46;;;;;;;8.23;2.53;;;;;;;;;;5071551;28;20489;-57
2023/10/24 01:43:13;;;;;;;8.90;2.50;;;;;;;;;;5071913;28;20935;-56
2023/10/24 01:45:40;;;;;;;10.03;2.00;;;;;;;;;;5071623;28;20510;-56
2023/10/24 01:48:07;;;;;;;4.53;1.90;;;;;;;;;;5072747;28;20535;-56
2023/10/24 01:50:35;;;;;;;7.37;2.37;;;;;;;;;;5072878;28;20529;-57
2023/10/24 01:53:02;;;;;;;6.90;2.40;;;;;;;;;;5073144;28;20466;-55
2023/10/24 01:55:30;;;;;;;8.17;2.07;;;;;;;;;;5072863;28;20468;-55
2023/10/24 01:57:58;;;;;;;7.07;1.40;;;;;;;;;;5072426;28;20923;-58
2023/10/24 02:00:26;;;;;;;4.70;1.80;;;;;;;;;;5071276;28;20833;-55
2023/10/24 02:02:53;;;;;;;9.53;2.67;;;;;;;;;;5072557;28;20452;-57
2023/10/24 02:05:21;;;;;;;9.87;2.50;;;;;;;;;;5069811;28;20954;-54
2023/10/24 02:07:48;;;;;;;8.20;2.30;;;;;;;;;;5072408;28;20645;-58
2023/10/24 02:10:15;;;;;;;7.73;2.73;;;;;;;;;;5072472;28;20537;-56
2023/10/24 02:12:43;;;;;;;9.97;2.43;;;;;;;;;;5072791;28;20527;-54
2023/10/24 02:15:12;;;;;;;5.60;1.90;;;;;;;;;;5072064;28;20874;-54
2023/10/24 02:17:41;;;;;;;10.80;2.90;;;;;;;;;;5072703;28;20441;-54
2023/10/24 02:20:09;;;;;;;9.70;2.67;;;;;;;;;;5072275;28;20458;-56
2023/10/24 02:22:36;;;;;;;8.33;2.30;;;;;;;;;;5070786;28;20464;-56
2023/10/24 02:25:04;;;;;;;10.93;2.40;;;;;;;;;;5072361;28;20525;-55
2023/10/24 02:27:31;;;;;;;7.47;2.00;;;;;;;;;;5072220;28;20554;-57
2023/10/24 02:29:58;;;;;;;6.40;2.10;;;;;;;;;;5072141;28;20535;-56
2023/10/24 02:32:27;;;;;;;6.83;2.00;;;;;;;;;;5072741;28;20444;-57
2023/10/24 02:34:54;;;;;;;8.83;2.47;;;;;;;;;;5072463;28;20513;-54
2023/10/24 02:37:21;;;;;;;10.97;3.50;;;;;;;;;;5071858;28;20448;-54
2023/10/24 02:39:49;;;;;;;6.10;2.33;;;;;;;;;;5067793;28;20508;-57
2023/10/24 02:42:16;;;;;;;10.10;3.60;;;;;;;;;;5068509;28;20936;-54
2023/10/24 02:44:43;;;;;;;8.97;2.83;;;;;;;;;;5068992;28;20553;-55
2023/10/24 02:47:11;;;;;;;5.23;1.90;;;;;;;;;;5071424;28;20961;-54
2023/10/24 02:49:39;;;;;;;8.67;1.90;;;;;;;;;;5071683;28;20456;-56
2023/10/24 02:52:07;;;;;;;8.30;3.20;;;;;;;;;;5071820;28;20452;-56
2023/10/24 02:54:34;;;;;;;5.73;3.50;;;;;;;;;;5070328;28;20876;-56
2023/10/24 02:57:01;;;;;;;4.40;2.70;;;;;;;;;;5067910;28;20492;-56
2023/10/24 02:59:28;;;;;;;7.30;3.00;;;;;;;;;;5067718;28;20833;-54
2023/10/24 03:01:56;;;;;;;7.63;2.27;;;;;;;;;;5071372;28;20510;-59
2023/10/24 03:04:23;;;;;;;8.30;2.30;;;;;;;;;;5070994;28;20530;-56
2023/10/24 03:06:51;;;;;;;7.73;2.83;;;;;;;;;;5065889;28;20526;-57
2023/10/24 03:09:19;;;;;;;6.03;1.73;;;;;;;;;;5067486;28;20472;-55
2023/10/24 03:11:46;;;;;;;4.60;2.27;;;;;;;;;;5066747;28;20436;-57
2023/10/24 03:14:13;;;;;;;6.80;3.70;;;;;;;;;;5070586;28;21145;-56
2023/10/24 03:16:40;;;;;;;13.03;3.03;;;;;;;;;;5071637;28;20457;-57
2023/10/24 03:19:08;;;;;;;11.20;3.00;;;;;;;;;;5071348;28;20909;-56
2023/10/24 03:21:35;;;;;;;8.40;3.37;;;;;;;;;;5071849;28;20515;-57
2023/10/24 03:24:04;;;;;;;5.00;2.87;;;;;;;;;;5067201;28;20477;-54
2023/10/24 03:26:31;;;;;;;11.00;3.27;;;;;;;;;;5071491;28;20480;-56
2023/10/24 03:28:58;;;;;;;8.60;2.43;;;;;;;;;;5071257;28;20449;-55
2023/10/24 03:31:25;;;;;;;4.53;2.43;;;;;;;;;;5071183;28;20494;-54
2023/10/24 03:33:53;;;;;;;8.23;2.83;;;;;;;;;;5061498;28;20437;-55
2023/10/24 03:36:20;;;;;;;6.07;2.07;;;;;;;;;;5063536;28;20847;-56
2023/10/24 03:38:47;;;;;;;6.00;2.10;;;;;;;;;;5069813;28;21004;-58
2023/10/24 03:41:16;;;;;;;11.90;2.40;;;;;;;;;;5069201;28;20479;-56
2023/10/24 03:43:47;;;;;;;5.80;2.10;;;;;;;;;;5067402;28;20812;-55
2023/10/24 03:46:15;;;;;;;15.70;2.83;;;;;;;;;;5071107;28;20469;-55
2023/10/24 03:48:42;;;;;;;5.60;2.90;;;;;;;;;;5070566;28;20455;-58
2023/10/24 03:51:09;;;;;;;7.53;2.30;;;;;;;;;;5069295;28;20452;-54
2023/10/24 03:53:37;;;;;;;6.23;1.97;;;;;;;;;;5070187;28;20448;-54
2023/10/24 03:56:04;;;;;;;5.97;2.40;;;;;;;;;;5070119;28;20464;-54
2023/10/24 03:58:33;;;;;;;5.70;2.60;;;;;;;;;;5070428;28;20445;-55
2023/10/24 04:01:05;;;;;;;7.37;2.50;;;;;;;;;;5070427;28;20531;-56
2023/10/24 04:03:32;;;;;;;4.60;2.40;;;;;;;;;;5070416;28;20519;-56
2023/10/24 04:05:59;;;;;;;5.60;2.37;;;;;;;;;;5069801;28;20491;-54
2023/10/24 04:08:27;;;;;;;8.57;2.07;;;;;;;;;;5070249;28;20503;-56
2023/10/24 04:10:54;;;;;;;6.60;2.80;;;;;;;;;;5062227;28;20958;-53
2023/10/24 04:13:21;;;;;;;8.00;2.73;;;;;;;;;;5067640;28;20595;-56
2023/10/24 04:15:51;;;;;;;9.17;3.30;;;;;;;;;;5069669;28;20518;-57
2023/10/24 04:18:18;;;;;;;11.00;4.37;;;;;;;;;;5071245;28;20446;-56
2023/10/24 04:20:46;;;;;;;8.43;4.60;;;;;;;;;;5070378;28;20456;-58
2023/10/24 04:23:14;;;;;;;7.07;4.30;;;;;;;;;;5069491;28;20452;-54
2023/10/24 04:25:42;;;;;;;11.60;4.10;;;;;;;;;;5070196;28;20986;-56
2023/10/24 04:28:09;;;;;;;7.40;2.97;;;;;;;;;;5070101;28;20535;-56
2023/10/24 04:30:39;;;;;;;6.87;2.37;;;;;;;;;;5069825;28;20942;-55
2023/10/24 04:33:08;;;;;;;8.00;3.27;;;;;;;;;;5070227;28;20468;-56
2023/10/24 04:35:43;;;;;;;6.60;2.80;;;;;;;;;;5070214;28;20492;-56
2023/10/24 04:38:10;;;;;;;9.80;4.50;;;;;;;;;;5070020;28;20448;-57
2023/10/24 04:40:41;;;;;;;7.07;3.17;;;;;;;;;;5068365;28;20555;-55
2023/10/24 04:43:08;;;;;;;7.93;3.27;;;;;;;;;;5065498;28;20481;-55
2023/10/24 04:45:36;;;;;;;10.10;2.70;;;;;;;;;;5065935;28;20999;-56
2023/10/24 04:48:04;;;;;;;13.47;3.57;;;;;;;;;;5065267;28;20566;-56
2023/10/24 04:50:36;;;;;;;8.50;2.53;;;;;;;;;;5065970;28;20456;-57
2023/10/24 04:53:04;;;;;;;7.37;2.63;;;;;;;;;;5059536;28;20480;-57
2023/10/24 04:55:31;;;;;;;7.17;2.70;;;;;;;;;;5065843;28;20465;-54
2023/10/24 04:57:58;;;;;;;12.10;3.57;;;;;;;;;;5070318;28;20441;-54
2023/10/24 05:00:26;;;;;;;7.57;2.40;;;;;;;;;;5068316;28;20445;-54
2023/10/24 05:02:53;;;;;;;9.07;3.40;;;;;;;;;;5060523;28;20452;-59
2023/10/24 05:05:21;;;;;;;7.63;3.33;;;;;;;;;;5058263;28;20471;-56
2023/10/24 05:07:49;;;;;;;9.47;2.83;;;;;;;;;;5068760;28;20502;-55
2023/10/24 05:10:17;;;;;;;6.00;2.57;;;;;;;;;;5061499;28;20450;-55
2023/10/24 05:12:44;;;;;;;10.50;6.30;;;;;;;;;;5057901;28;20535;-55
2023/10/24 05:15:11;;;;;;;8.77;3.37;;;;;;;;;;5064550;28;20476;-54
2023/10/24 05:17:38;;;;;;;6.60;3.07;;;;;;;;;;5067365;28;20501;-56
2023/10/24 05:20:07;;;;;;;5.43;2.10;;;;;;;;;;5061231;28;20950;-58
2023/10/24 05:22:34;;;;;;;6.47;2.40;;;;;;;;;;5058056;28;20477;-56
2023/10/24 05:25:03;;;;;;;7.73;3.50;;;;;;;;;;5056703;28;20474;-55
2023/10/24 05:27:32;;;;;;;12.37;6.00;;;;;;;;;;5057078;28;20551;-57
2023/10/24 05:29:59;;;;;;;11.33;4.10;;;;;;;;;;5056295;28;20445;-57
2023/10/24 05:32:26;;;;;;;8.60;3.60;;;;;;;;;;5062574;28;20547;-56
2023/10/24 05:34:53;;;;;;;11.13;5.73;;;;;;;;;;5062740;28;21023;-56
2023/10/24 05:37:21;;;;;;;14.80;5.43;;;;;;;;;;5066907;28;20496;-58
2023/10/24 05:39:48;;;;;;;8.13;4.03;;;;;;;;;;5066715;28;20966;-54
2023/10/24 05:42:16;;;;;;;8.93;4.80;;;;;;;;;;5063217;28;20478;-56
2023/10/24 05:44:44;;;;;;;12.07;5.73;;;;;;;;;;5062679;28;20878;-53
2023/10/24 05:47:11;;;;;;;12.30;6.37;;;;;;;;;;5111050;22;20518;-88
2023/10/24 05:49:38;;;;;;;6.17;2.70;;;;;;;;;;5098476;28;20459;-89
2023/10/24 05:52:06;;;;;;;7.87;2.30;;;;;;;;;;5091209;28;20516;-89
2023/10/24 05:54:36;;;;;;;7.00;5.17;;;;;;;;;;5088507;28;20440;-88
2023/10/24 05:57:03;;;;;;;6.13;3.03;;;;;;;;;;5084015;28;20448;-89
2023/10/24 05:59:34;;;;;;;5.20;2.27;;;;;;;;;;5084974;28;20840;-88
2023/10/24 06:02:01;;;;;;;10.63;4.90;;;;;;;;;;5085162;28;20699;-88
2023/10/24 06:04:28;;;;;;;8.33;5.10;;;;;;;;;;5087884;28;20470;-88
2023/10/24 06:06:56;;;;;;;9.70;4.53;;;;;;;;;;5090395;28;20423;-88
2023/10/24 06:09:23;;;;;;;8.80;4.40;;;;;;;;;;5092834;28;20500;-88
2023/10/24 06:11:50;;;;;;;7.70;4.20;;;;;;;;;;5089929;28;20432;-88
2023/10/24 06:14:18;;;;;;;8.43;3.73;;;;;;;;;;5088374;28;20452;-88
2023/10/24 06:16:46;;;;;;;7.50;4.30;;;;;;;;;;5090150;28;20529;-88
2023/10/24 06:19:14;;;;;;;16.57;6.30;;;;;;;;;;5088061;28;20499;-88
2023/10/24 06:21:41;;;;;;;10.20;4.50;;;;;;;;;;5091344;28;20448;-88
2023/10/24 06:24:08;;;;;;;10.67;5.77;;;;;;;;;;5090413;28;20854;-88
2023/10/24 06:26:35;;;;;;;8.40;2.53;;;;;;;;;;5091534;28;20934;-88
2023/10/24 06:29:03;;;;;;;8.23;4.47;;;;;;;;;;5090029;28;20487;-88
2023/10/24 06:31:30;;;;;;;8.03;5.30;;;;;;;;;;5086510;28;20516;-89
2023/10/24 06:33:59;;;;;;;10.17;4.60;;;;;;;;;;5090250;28;20435;-88
2023/10/24 06:36:27;;;;;;;7.57;4.60;;;;;;;;;;5089466;28;20498;-89
2023/10/24 06:38:54;;;;;;;7.07;4.23;;;;;;;;;;5091709;28;20957;-89
2023/10/24 06:41:21;;;;;;;8.50;4.90;;;;;;;;;;5093443;28;20930;-88
2023/10/24 06:43:49;;;;;;;10.57;8.40;;;;;;;;;;5090198;28;20937;-88
2023/10/24 06:46:16;;;;;;;10.33;7.63;;;;;;;;;;5089817;28;20466;-89
2023/10/24 06:48:44;;;;;;;9.93;8.40;;;;;;;;;;5093455;28;20483;-88
2023/10/24 06:51:12;;;;;;;12.80;8.13;;;;;;;;;;5100113;28;20442;-88
2023/10/24 06:53:39;;;;;;;11.33;6.70;;;;;;;;;;5093297;28;20443;-89
2023/10/24 06:56:07;;;;;;;10.50;4.83;;;;;;;;;;5092131;28;20492;-89
2023/10/24 06:58:34;;;;;;;12.90;7.60;;;;;;;;;;5093262;28;20459;-88
2023/10/24 07:01:02;;;;;;;14.53;11.20;;;;;;;;;;5106957;28;20444;-88
2023/10/24 07:03:29;;;;;;;13.73;10.40;;;;;;;;;;5104750;28;20440;-89
2023/10/24 07:05:57;;;;;;;14.23;8.93;;;;;;;;;;5091602;28;20885;-88
2023/10/24 07:08:25;;;;;;;15.03;11.67;;;;;;;;;;5092963;28;20483;-89
2023/10/24 07:10:53;;;;;;;10.87;7.80;;;;;;;;;;5093175;28;20493;-89
2023/10/24 07:13:20;;;;;;;10.10;8.33;;;;;;;;;;5084734;28;20444;-89
2023/10/24 07:15:47;;;;;;;10.67;8.03;;;;;;;;;;5088245;28;20497;-89
2023/10/24 07:18:15;;;;;;;14.70;10.10;;;;;;;;;;5089654;28;20543;-88
2023/10/24 07:20:43;;;;;;;10.53;6.57;;;;;;;;;;5091488;28;20815;-89
2023/10/24 07:23:10;;;;;;;12.73;8.90;;;;;;;;;;5093060;28;20443;-89
2023/10/24 07:25:38;;;;;;;11.47;7.80;;;;;;;;;;5091524;28;20451;-88
2023/10/24 07:28:18;;;;;;;11.40;7.20;;;;;;;;;;5093026;28;20506;-88
2023/10/24 07:30:51;;;;;;;13.30;9.43;;;;;;;;;;5092472;28;21045;-89
2023/10/24 07:33:21;;;;;;;17.97;9.90;;;;;;;;;;5092708;28;20480;-89
2023/10/24 07:35:51;;;;;;;13.80;7.70;;;;;;;;;;5092471;28;20516;-89
2023/10/24 07:38:19;;;;;;;11.30;8.00;;;;;;;;;;5088424;28;20516;-88
2023/10/24 07:40:48;;;;;;;11.67;8.70;;;;;;;;;;5091820;28;20519;-89
2023/10/24 07:43:16;;;;;;;14.20;8.33;;;;;;;;;;5093000;28;20459;-88
2023/10/24 07:45:43;;;;;;;11.30;8.07;;;;;;;;;;5085845;28;20532;-88
2023/10/24 07:48:12;;;;;;;7.57;6.10;;;;;;;;;;5089071;28;20498;-88
2023/10/24 07:50:39;;;;;;;9.23;6.40;;;;;;;;;;5088766;28;20537;-88
2023/10/24 07:53:07;;;;;;;10.10;6.00;;;;;;;;;;5086188;28;20480;-88
2023/10/24 07:55:34;;;;;;;11.50;6.30;;;;;;;;;;5091861;28;20513;-88
2023/10/24 07:58:04;;;;;;;10.57;6.07;;;;;;;;;;5092234;28;20459;-88
2023/10/24 08:00:31;;;;;;;9.70;6.40;;;;;;;;;;5087119;28;20821;-88
2023/10/24 08:02:58;;;;;;;7.73;6.10;;;;;;;;;;5085546;28;20938;-88
2023/10/24 08:05:25;;;;;;;14.13;9.20;;;;;;;;;;5079997;28;20943;-88
2023/10/24 08:08:11;;;;;;;10.67;8.47;;;;;;;;;;5083739;28;20863;-88
2023/10/24 08:10:38;;;;;;;17.67;10.13;;;;;;;;;;5088475;28;20479;-88
2023/10/24 08:13:07;;;;;;;15.63;9.10;;;;;;;;;;5089054;28;20522;-87
2023/10/24 08:15:35;;;;;;;11.00;8.67;;;;;;;;;;5089484;28;20456;-88
2023/10/24 08:18:02;;;;;;;11.33;7.60;;;;;;;;;;5091862;28;20464;-88
2023/10/24 08:20:29;;;;;;;9.23;7.03;;;;;;;;;;5091498;28;20467;-88
2023/10/24 08:22:57;;;;;;;12.07;6.97;;;;;;;;;;5087587;28;20479;-88
2023/10/24 08:25:24;;;;;;;11.60;6.90;;;;;;;;;;5087471;28;20958;-88
2023/10/24 08:27:51;;;;;;;15.00;7.20;;;;;;;;;;5087704;28;20475;-87
2023/10/24 08:30:20;;;;;;;9.90;6.93;;;;;;;;;;5083195;28;20501;-88
2023/10/24 08:32:47;;;;;;;9.80;7.70;;;;;;;;;;5091018;28;20922;-88
2023/10/24 08:35:14;;;;;;;12.87;9.00;;;;;;;;;;5094569;27;20473;-88
2023/10/24 08:37:42;;;;;;;11.30;9.23;;;;;;;;;;5093160;28;20540;-88
2023/10/24 08:40:09;;;;;;;15.77;9.63;;;;;;;;;;5083733;28;20468;-88
2023/10/24 08:42:37;;;;;;;11.27;8.63;;;;;;;;;;5086870;28;20444;-88
2023/10/24 08:45:05;;;;;;;15.63;9.63;;;;;;;;;;5091080;28;20428;-88
2023/10/24 08:47:36;;;;;;;14.50;10.20;;;;;;;;;;5090778;28;20478;-88
2023/10/24 08:50:03;;;;;;;11.50;10.30;;;;;;;;;;5091194;28;20536;-88
2023/10/24 08:52:31;;;;;;;16.40;10.50;;;;;;;;;;5090903;28;20504;-88
2023/10/24 08:54:59;;;;;;;15.77;14.00;;;;;;;;;;5091231;28;20460;-88
2023/10/24 08:57:28;;;;;;;20.52;16.10;;;;;;;;;;5090897;28;20433;-88
2023/10/24 08:59:56;;;;;;;14.83;13.20;;;;;;;;;;5091388;28;20201;-88
2023/10/24 09:02:24;;;;;;;18.47;13.70;;;;;;;;;;5091490;28;20479;-90
2023/10/24 09:04:52;;;;;;;15.97;9.27;;;;;;;;;;5090574;28;20481;-88
2023/10/24 09:07:20;;;;;;;10.33;8.03;;;;;;;;;;5086515;28;20541;-88
2023/10/24 09:09:47;;;;;;;9.13;4.73;;;;;;;;;;5090784;28;20532;-88
2023/10/24 09:12:15;;;;;;;11.13;7.23;;;;;;;;;;5090855;28;20508;-88
2023/10/24 09:14:46;;;;;;;10.23;6.33;;;;;;;;;;5091353;28;20455;-88
2023/10/24 09:17:14;;;;;;;9.50;6.07;;;;;;;;;;5091249;28;20546;-88
2023/10/24 09:19:42;;;;;;;3.03;2.40;;;;;;;;;;5089059;28;20449;-87
2023/10/24 09:22:10;;;;;;;1.43;0.70;;;;;;;;;;5085183;28;20447;-88
2023/10/24 09:24:38;;;;;;;1.47;0.57;;;;;;;;;;5091789;28;20669;-87
2023/10/24 09:27:05;;;;;;;2.20;1.13;;;;;;;;;;5091346;28;20501;-87
2023/10/24 09:29:33;;;;;;;1.87;0.63;;;;;;;;;;5087352;28;20543;-87
2023/10/24 09:32:01;;;;;;;1.87;0.77;;;;;;;;;;5089754;28;20467;-87
2023/10/24 09:34:29;;;;;;;2.53;1.20;;;;;;;;;;5080550;28;20496;-87
2023/10/24 09:37:06;;;;;;;13.00;6.23;;;;;;;;;;5091850;28;20431;-87
2023/10/24 09:39:35;;;;;;;7.60;5.43;;;;;;;;;;5085646;28;20444;-87
2023/10/24 09:42:02;;;;;;;8.70;5.73;;;;;;;;;;5087002;28;20484;-90
2023/10/24 09:44:30;;;;;;;9.73;6.53;;;;;;;;;;5091242;28;20443;-88
2023/10/24 09:46:58;;;;;;;7.80;2.23;;;;;;;;;;5090814;28;20524;-88
2023/10/24 09:49:26;;;;;;;1.50;0.80;;;;;;;;;;5089783;28;20505;-87
2023/10/24 09:51:54;;;;;;;13.63;4.90;;;;;;;;;;5091723;28;20537;-87
2023/10/24 09:54:21;;;;;;;2.63;1.73;;;;;;;;;;5094933;28;20500;-87
2023/10/24 09:56:51;;;;;;;1.90;1.00;;;;;;;;;;5091587;28;20444;-88
2023/10/24 09:59:18;;;;;;;2.57;1.10;;;;;;;;;;5091608;28;20502;-87
2023/10/24 10:01:46;;;;;;;1.97;0.70;;;;;;;;;;5087857;28;20460;-88
2023/10/24 10:04:14;;;;;;;1.90;0.80;;;;;;;;;;5094632;28;20482;-87
2023/10/24 10:06:42;;;;;;;3.97;0.80;;;;;;;;;;5093163;28;20439;-88
2023/10/24 10:09:12;;;;;;;2.00;0.90;;;;;;;;;;5098532;28;20467;-88
2023/10/24 10:11:41;;;;;;;1.87;0.63;;;;;;;;;;5092484;28;20439;-89
2023/10/24 10:14:13;;;;;;;1.63;0.60;;;;;;;;;;5092540;28;20504;-88
2023/10/24 10:16:45;;;;;;;3.90;1.07;;;;;;;;;;5094081;28;20994;-88
2023/10/24 10:19:23;;;;;;;2.10;1.00;;;;;;;;;;5093846;28;20455;-88
2023/10/24 10:21:57;;;;;;;4.13;2.60;;;;;;;;;;5090966;28;20488;-88
2023/10/24 10:24:43;;;;;;;1.60;0.60;;;;;;;;;;5090525;28;20971;-88
2023/10/24 10:27:19;;;;;;;2.37;0.70;;;;;;;;;;5094912;28;20588;-88
2023/10/24 10:29:51;;;;;;;2.93;0.73;;;;;;;;;;5081966;28;20480;-88
2023/10/24 10:32:23;;;;;;;2.00;1.10;;;;;;;;;;5089486;28;20528;-88
2023/10/24 10:34:52;;;;;;;3.10;1.60;;;;;;;;;;5095121;28;20504;-88
2023/10/24 10:37:19;;;;;;;1.47;0.63;;;;;;;;;;5093185;28;20455;-88
2023/10/24 10:40:02;;;;;;;1.50;0.60;;;;;;;;;;5091012;28;20445;-88
2023/10/24 10:42:48;;;;;;;2.80;1.13;;;;;;;;;;5093050;28;20440;-87
2023/10/24 10:45:26;;;;;;;3.63;1.53;;;;;;;;;;5086666;28;20940;-87
2023/10/24 10:48:09;;;;;;;2.03;0.93;;;;;;;;;;5065718;28;20467;-88
2023/10/24 10:50:39;;;;;;;2.10;1.00;;;;;;;;;;5094541;28;20475;-88
2023/10/24 10:53:24;;;;;;;1.90;0.90;;;;;;;;;;5086319;28;20535;-88
2023/10/24 10:55:56;;;;;;;2.70;0.90;;;;;;;;;;5090571;28;20457;-88
2023/10/24 10:58:24;;;;;;;2.20;1.17;;;;;;;;;;5087194;28;20467;-89
2023/10/24 11:01:00;;;;;;;1.67;0.97;;;;;;;;;;5086055;28;20501;-88
2023/10/24 11:03:39;;;;;;;2.70;1.10;;;;;;;;;;5075992;28;20930;-88
2023/10/24 11:06:10;;;;;;;2.23;1.33;;;;;;;;;;5099758;28;20439;-88
2023/10/24 11:08:43;;;;;;;1.73;0.60;;;;;;;;;;5090359;28;20847;-88
2023/10/24 11:11:11;;;;;;;2.10;0.70;;;;;;;;;;5097979;28;20447;-88
2023/10/24 11:13:40;;;;;;;3.17;1.70;;;;;;;;;;5083152;28;21192;-88
2023/10/24 11:16:09;;;;;;;4.23;2.10;;;;;;;;;;5083519;28;20437;-89
2023/10/24 11:18:37;;;;;;;2.43;1.57;;;;;;;;;;5096677;28;20540;-88
2023/10/24 11:21:05;;;;;;;2.17;0.70;;;;;;;;;;5085629;28;20475;-88
2023/10/24 11:23:32;;;;;;;1.70;0.60;;;;;;;;;;5086703;28;20527;-88
2023/10/24 11:26:00;;;;;;;1.50;0.40;;;;;;;;;;5084418;28;20447;-88
2023/10/24 11:28:27;;;;;;;2.83;1.03;;;;;;;;;;5084502;28;20625;-88
2023/10/24 11:30:55;;;;;;;1.73;0.77;;;;;;;;;;5083894;28;20561;-89
2023/10/24 11:33:25;;;;;;;1.40;0.60;;;;;;;;;;5093263;28;20772;-88
2023/10/24 11:35:53;;;;;;;2.87;1.90;;;;;;;;;;5089427;28;20435;-88
2023/10/24 11:38:20;;;;;;;2.50;1.00;;;;;;;;;;5087950;28;20459;-88
2023/10/24 11:40:47;;;;;;;2.20;1.40;;;;;;;;;;5097871;28;20432;-88
2023/10/24 11:43:17;;;;;;;1.40;0.60;;;;;;;;;;5092463;28;20443;-89
2023/10/24 11:45:45;;;;;;;4.83;1.83;;;;;;;;;;5092746;28;20431;-88
2023/10/24 11:48:13;;;;;;;5.60;3.33;;;;;;;;;;5091962;28;20463;-88
2023/10/24 11:50:43;;;;;;;3.00;2.00;;;;;;;;;;5092115;28;20477;-88
2023/10/24 11:53:11;;;;;;;2.63;1.20;;;;;;;;;;5092238;28;20424;-89
2023/10/24 11:55:38;;;;;;;1.70;0.90;;;;;;;;;;5087960;28;20457;-88
2023/10/24 11:58:09;;;;;;;2.47;1.20;;;;;;;;;;5108280;22;20436;-55
2023/10/24 12:00:40;;;;;;;1.30;0.60;;;;;;;;;;5049327;28;20242;-53
2023/10/24 12:03:08;;;;;;;2.67;0.90;;;;;;;;;;5051310;28;20444;-54
2023/10/24 12:05:35;;;;;;;1.60;0.70;;;;;;;;;;5051348;28;20445;-54
2023/10/24 12:08:05;;;;;;;1.30;0.40;;;;;;;;;;5031771;28;20900;-52
2023/10/24 12:10:33;;;;;;;1.50;0.50;;;;;;;;;;5030551;28;20541;-53
2023/10/24 12:13:02;;;;;;;1.50;0.67;;;;;;;;;;5030980;28;20478;-55
2023/10/24 12:15:29;;;;;;;1.40;0.40;;;;;;;;;;5031092;28;20924;-54
2023/10/24 12:17:57;;;;;;;1.40;0.67;;;;;;;;;;5031027;28;20498;-56
2023/10/24 12:20:24;;;;;;;2.63;1.10;;;;;;;;;;5031196;28;20473;-56
2023/10/24 12:22:51;;;;;;;1.90;0.60;;;;;;;;;;5031093;28;20466;-54
2023/10/24 12:25:20;;;;;;;2.77;1.30;;;;;;;;;;5030631;28;20521;-56
2023/10/24 12:27:48;;;;;;;1.50;0.50;;;;;;;;;;5030429;28;21102;-55
2023/10/24 12:30:15;;;;;;;2.33;0.90;;;;;;;;;;5030926;28;20513;-56
2023/10/24 12:32:42;;;;;;;2.70;1.37;;;;;;;;;;5030789;28;20477;-55
2023/10/24 12:35:10;;;;;;;7.00;1.63;;;;;;;;;;5030564;28;20469;-55
2023/10/24 12:37:38;;;;;;;1.60;0.67;;;;;;;;;;5030570;28;20532;-56
2023/10/24 12:40:06;;;;;;;1.67;0.50;;;;;;;;;;5030683;28;20500;-55
2023/10/24 12:42:35;;;;;;;1.80;0.53;;;;;;;;;;5030733;28;20450;-54
2023/10/24 12:45:02;;;;;;;1.40;0.50;;;;;;;;;;5030812;28;20450;-56
2023/10/24 12:47:29;;;;;;;1.37;0.30;;;;;;;;;;5030652;28;21110;-56
2023/10/24 12:49:57;;;;;;;1.20;0.30;;;;;;;;;;5030556;28;20575;-53
2023/10/24 12:52:24;;;;;;;1.50;0.70;;;;;;;;;;5030417;28;20932;-56
2023/10/24 12:54:52;;;;;;;1.30;0.40;;;;;;;;;;5030509;28;20485;-55
2023/10/24 12:57:19;;;;;;;1.80;0.67;;;;;;;;;;5030496;28;20490;-56
2023/10/24 12:59:48;;;;;;;1.50;0.67;;;;;;;;;;5029886;28;20541;-55
2023/10/24 13:02:15;;;;;;;2.17;0.50;;;;;;;;;;5030458;28;20438;-53
2023/10/24 13:04:44;;;;;;;1.80;0.93;;;;;;;;;;5030549;28;20469;-56
2023/10/24 13:07:11;;;;;;;4.03;0.70;;;;;;;;;;5030150;28;20549;-54
2023/10/24 13:09:38;;;;;;;1.40;0.60;;;;;;;;;;5030088;28;20514;-57
2023/10/24 13:12:06;;;;;;;3.30;0.70;;;;;;;;;;5030226;28;20474;-55
2023/10/24 13:14:34;;;;;;;1.83;0.80;;;;;;;;;;5029809;28;20512;-54
2023/10/24 13:17:02;;;;;;;2.57;1.13;;;;;;;;;;5030275;28;20466;-56
2023/10/24 13:19:30;;;;;;;2.10;1.17;;;;;;;;;;5030110;28;20438;-55
2023/10/24 13:21:57;;;;;;;1.47;0.57;;;;;;;;;;5031003;28;20473;-53
2023/10/24 13:24:25;;;;;;;1.80;1.00;;;;;;;;;;5034322;28;20867;-53
2023/10/24 13:26:52;;;;;;;2.57;1.10;;;;;;;;;;5034396;28;20542;-53
2023/10/24 13:29:21;;;;;;;3.10;1.03;;;;;;;;;;5034221;28;20443;-55
2023/10/24 13:31:49;;;;;;;1.90;0.80;;;;;;;;;;5034009;28;20488;-54
2023/10/24 13:34:18;;;;;;;1.40;0.50;;;;;;;;;;5033831;28;20538;-53
2023/10/24 13:36:46;;;;;;;1.97;0.93;;;;;;;;;;5034165;28;20477;-54
2023/10/24 13:39:16;;;;;;;1.63;0.60;;;;;;;;;;5034084;28;20454;-53
2023/10/24 13:41:44;;;;;;;1.80;0.40;;;;;;;;;;5034532;28;20446;-53
2023/10/24 13:44:12;;;;;;;1.30;0.50;;;;;;;;;;5033853;28;20831;-53
2023/10/24 13:46:40;;;;;;;4.50;0.70;;;;;;;;;;5033548;28;20480;-53
2023/10/24 13:49:07;;;;;;;1.80;0.90;;;;;;;;;;5033899;28;20467;-53
2023/10/24 13:51:36;;;;;;;2.90;0.70;;;;;;;;;;5033808;28;20564;-55
2023/10/24 13:54:04;;;;;;;1.83;0.90;;;;;;;;;;5033649;28;20527;-53
2023/10/24 13:56:31;;;;;;;1.30;0.50;;;;;;;;;;5033631;28;21033;-54
2023/10/24 13:58:59;;;;;;;2.20;0.90;;;;;;;;;;5033406;28;20489;-55
2023/10/24 14:01:28;;;;;;;1.80;0.83;;;;;;;;;;5033683;28;20940;-54
2023/10/24 14:03:55;;;;;;;1.60;0.70;;;;;;;;;;5033428;28;20519;-53
2023/10/24 14:06:22;;;;;;;1.53;0.77;;;;;;;;;;5033878;28;20493;-54
2023/10/24 14:08:51;;;;;;;3.23;0.90;;;;;;;;;;5033381;28;20523;-53
2023/10/24 14:11:18;;;;;;;5.40;1.77;;;;;;;;;;5033301;28;20482;-54
2023/10/24 14:13:45;;;;;;;1.50;0.70;;;;;;;;;;5032924;28;20481;-54
2023/10/24 14:16:13;;;;;;;2.73;1.20;;;;;;;;;;5033329;28;20466;-54
2023/10/24 14:18:40;;;;;;;1.87;1.13;;;;;;;;;;5033197;28;20482;-55
2023/10/24 14:21:07;;;;;;;2.37;1.10;;;;;;;;;;5033430;28;20477;-52
2023/10/24 14:23:34;;;;;;;1.63;0.80;;;;;;;;;;5032978;28;20474;-52
2023/10/24 14:26:03;;;;;;;2.43;1.00;;;;;;;;;;5032839;28;20523;-53
2023/10/24 14:28:31;;;;;;;1.57;0.70;;;;;;;;;;5024530;28;20549;-53
2023/10/24 14:30:58;;;;;;;1.87;0.90;;;;;;;;;;5030377;28;20513;-54
2023/10/24 14:33:25;;;;;;;1.30;0.50;;;;;;;;;;5031040;28;20874;-54
2023/10/24 14:35:53;;;;;;;2.37;0.60;;;;;;;;;;5032048;28;20462;-52
2023/10/24 14:38:20;;;;;;;2.90;2.10;;;;;;;;;;5032156;28;20528;-53
2023/10/24 14:40:47;;;;;;;2.97;2.43;;;;;;;;;;5032109;28;20940;-52
2023/10/24 14:43:16;;;;;;;3.23;2.93;;;;;;;;;;5025263;28;20494;-52
2023/10/24 14:45:43;;;;;;;3.90;3.23;;;;;;;;;;5029466;28;20943;-53